| time (UTC) | temp F | wind direction | speed MPH | gust MPH | rain 1hr in | rain 24hr in | rain mn in | humidity % | barometer mb |
| 20260507065939 | 78 | 0.0 | 0.0 | 0.00 | 0.00 | 0.00 | 28 | 922.4 | |
| 20260507065439 | 75 | 0.0 | 0.0 | 0.00 | 0.00 | 0.00 | 31 | 922.4 | |
| 20260507064939 | 73 | 0.0 | 0.0 | 0.00 | 0.00 | 0.00 | 34 | 922.3 | |
| 20260507064439 | 69 | 0.0 | 0.0 | 0.00 | 0.00 | 0.00 | 39 | 922.4 | |
| 20260507063939 | 65 | 0.0 | 0.0 | 0.00 | 0.00 | 0.00 | 43 | 922.5 | |
| 20260507063439 | 63 | 0.0 | 0.0 | 0.00 | 0.00 | 0.00 | 45 | 922.5 | |
| 20260507062939 | 61 | 0.0 | 0.0 | 0.00 | 0.00 | 0.00 | 46 | 922.5 | |
| 20260507062439 | 60 | 0.0 | 0.0 | 0.00 | 0.00 | 0.00 | 46 | 922.6 | |
| 20260507061939 | 60 | 0.0 | 0.0 | 0.00 | 0.00 | 0.00 | 48 | 922.6 | |
| 20260507061439 | 59 | 0.0 | 0.0 | 0.00 | 0.00 | 0.00 | 50 | 922.6 | |
| 20260507060939 | 58 | 0.0 | 0.0 | 0.00 | 0.00 | 0.00 | 48 | 922.5 | |
| 20260507060439 | 58 | 0.0 | 0.0 | 0.00 | 0.00 | 0.00 | 45 | 922.5 | |
| 20260507055939 | 57 | 0.0 | 0.0 | 0.00 | 0.00 | 0.00 | 45 | 922.4 | |
| 20260507055439 | 57 | 0.0 | 0.0 | 0.00 | 0.00 | 0.00 | 45 | 922.3 | |
| 20260507054939 | 57 | 0.0 | 0.0 | 0.00 | 0.00 | 0.00 | 46 | 922.4 | |
| 20260507054439 | 56 | 0.0 | 0.0 | 0.00 | 0.00 | 0.00 | 46 | 922.4 | |
| 20260507053939 | 56 | 0.0 | 0.0 | 0.00 | 0.00 | 0.00 | 47 | 922.4 | |
| 20260507053439 | 56 | 0.0 | 0.0 | 0.00 | 0.00 | 0.00 | 48 | 922.4 | |
| 20260507052939 | 55 | 0.0 | 0.0 | 0.00 | 0.00 | 0.00 | 48 | 922.4 | |
| 20260507052439 | 55 | 0.0 | 0.0 | 0.00 | 0.00 | 0.00 | 48 | 922.4 | |
| 20260507051939 | 55 | 0.0 | 0.0 | 0.00 | 0.00 | 0.00 | 49 | 922.4 | |
| 20260507051439 | 55 | 0.0 | 0.0 | 0.00 | 0.00 | 0.00 | 50 | 922.5 | |
| 20260507050939 | 55 | 0.0 | 0.0 | 0.00 | 0.00 | 0.00 | 52 | 922.5 | |
| 20260507050439 | 55 | 0.0 | 0.0 | 0.00 | 0.00 | 0.00 | 54 | 922.5 | |
| 20260507045939 | 54 | 0.0 | 0.0 | 0.00 | 0.00 | 0.00 | 54 | 922.5 | |
| 20260507045439 | 54 | 0.0 | 0.0 | 0.00 | 0.00 | 0.00 | 56 | 922.5 | |
| 20260507044939 | 54 | 0.0 | 0.0 | 0.00 | 0.00 | 0.00 | 55 | 922.4 | |
| 20260507044439 | 54 | 0.0 | 0.0 | 0.00 | 0.00 | 0.00 | 54 | 922.3 | |
| 20260507043939 | 54 | 0.0 | 0.0 | 0.00 | 0.00 | 0.00 | 55 | 922.2 | |
| 20260507043439 | 53 | 0.0 | 0.0 | 0.00 | 0.00 | 0.00 | 57 | 922.2 | |
| 20260507042939 | 53 | 0.0 | 0.0 | 0.00 | 0.00 | 0.00 | 59 | 922.2 | |
| 20260507042439 | 53 | 0.0 | 0.0 | 0.00 | 0.00 | 0.00 | 60 | 922.1 | |
| 20260507041939 | 53 | 0.0 | 0.0 | 0.00 | 0.00 | 0.00 | 62 | 922.1 | |
| 20260507041439 | 52 | 0.0 | 0.0 | 0.00 | 0.00 | 0.00 | 63 | 922.1 | |
| 20260507040939 | 52 | 0.0 | 0.0 | 0.00 | 0.00 | 0.00 | 64 | 922.2 | |
| 20260507040439 | 52 | 0.0 | 0.0 | 0.00 | 0.00 | 0.00 | 65 | 922.2 | |
| 20260507035939 | 51 | 0.0 | 0.0 | 0.00 | 0.00 | 0.00 | 66 | 922.2 | |
| 20260507035439 | 51 | 0.0 | 0.0 | 0.00 | 0.00 | 0.00 | 67 | 922.1 | |
| 20260507034939 | 51 | 0.0 | 0.0 | 0.00 | 0.00 | 0.00 | 66 | 922.0 | |
| 20260507034439 | 51 | 0.0 | 0.0 | 0.00 | 0.00 | 0.00 | 67 | 922.0 | |
| 20260507033939 | 51 | 0.0 | 0.0 | 0.00 | 0.00 | 0.00 | 68 | 921.9 | |
| 20260507033439 | 50 | 0.0 | 0.0 | 0.00 | 0.00 | 0.00 | 68 | 921.9 | |
| 20260507032939 | 50 | 0.0 | 0.0 | 0.00 | 0.00 | 0.00 | 69 | 921.9 | |
| 20260507032439 | 51 | 0.0 | 0.0 | 0.00 | 0.00 | 0.00 | 67 | 921.7 | |
| 20260507031939 | 51 | 0.0 | 0.0 | 0.00 | 0.00 | 0.00 | 65 | 921.7 | |
| 20260507031439 | 51 | 0.0 | 0.0 | 0.00 | 0.00 | 0.00 | 66 | 921.7 | |
| 20260507030939 | 51 | 0.0 | 0.0 | 0.00 | 0.00 | 0.00 | 66 | 921.7 | |
| 20260507030439 | 52 | 0.0 | 0.0 | 0.00 | 0.00 | 0.00 | 65 | 921.7 | |
| 20260507025939 | 51 | 0.0 | 0.0 | 0.00 | 0.00 | 0.00 | 67 | 921.7 | |
| 20260507025439 | 50 | 0.0 | 0.0 | 0.00 | 0.00 | 0.00 | 68 | 921.6 | |
| 20260507024939 | 50 | 0.0 | 0.0 | 0.00 | 0.00 | 0.00 | 68 | 921.7 | |
| 20260507024439 | 50 | 0.0 | 0.0 | 0.00 | 0.00 | 0.00 | 67 | 921.5 | |
| 20260507023939 | 50 | 0.0 | 0.0 | 0.00 | 0.00 | 0.00 | 67 | 921.4 | |
| 20260507023439 | 51 | 0.0 | 0.0 | 0.00 | 0.00 | 0.00 | 66 | 921.5 | |
| 20260507022939 | 51 | 0.0 | 0.0 | 0.00 | 0.00 | 0.00 | 66 | 921.5 | |
| 20260507022439 | 51 | 0.0 | 0.0 | 0.00 | 0.00 | 0.00 | 67 | 921.5 | |
| 20260507021939 | 51 | 0.0 | 0.0 | 0.00 | 0.00 | 0.00 | 67 | 921.5 | |
| 20260507021439 | 50 | 0.0 | 0.0 | 0.00 | 0.00 | 0.00 | 67 | 921.5 | |
| 20260507020939 | 50 | 0.0 | 0.0 | 0.00 | 0.00 | 0.00 | 68 | 921.5 | |
| 20260507020439 | 50 | 0.0 | 0.0 | 0.00 | 0.00 | 0.00 | 67 | 921.4 | |
| 20260507015939 | 50 | 0.0 | 0.0 | 0.00 | 0.00 | 0.00 | 68 | 921.4 | |
| 20260507015439 | 50 | 0.0 | 0.0 | 0.00 | 0.00 | 0.00 | 68 | 921.3 | |
| 20260507014939 | 50 | 0.0 | 0.0 | 0.00 | 0.00 | 0.00 | 66 | 921.3 | |
| 20260507014439 | 51 | 0.0 | 0.0 | 0.00 | 0.00 | 0.00 | 66 | 921.3 | |
| 20260507013939 | 51 | 0.0 | 0.0 | 0.00 | 0.00 | 0.00 | 66 | 921.2 | |
| 20260507013439 | 51 | 0.0 | 0.0 | 0.00 | 0.00 | 0.00 | 66 | 921.3 | |
| 20260507012939 | 51 | 0.0 | 0.0 | 0.00 | 0.00 | 0.00 | 65 | 921.3 | |
| 20260507012439 | 52 | 0.0 | 0.0 | 0.00 | 0.00 | 0.00 | 65 | 921.2 | |
| 20260507011939 | 52 | 0.0 | 0.0 | 0.00 | 0.00 | 0.00 | 65 | 921.1 | |
| 20260507011439 | 51 | 0.0 | 0.0 | 0.00 | 0.00 | 0.00 | 66 | 921.1 | |
| 20260507010939 | 51 | 0.0 | 0.0 | 0.00 | 0.00 | 0.00 | 66 | 921.1 | |
| 20260507010439 | 52 | 0.0 | 0.0 | 0.00 | 0.00 | 0.00 | 65 | 921.1 | |
| 20260507005939 | 53 | 0.0 | 0.0 | 0.00 | 0.00 | 0.00 | 63 | 921.0 | |
| 20260507005439 | 53 | 0.0 | 0.0 | 0.00 | 0.00 | 0.00 | 63 | 920.9 | |
| 20260507004939 | 52 | 0.0 | 0.0 | 0.00 | 0.00 | 0.00 | 64 | 921.0 | |
| 20260507004439 | 52 | 0.0 | 0.0 | 0.00 | 0.00 | 0.00 | 65 | 921.0 | |
| 20260507003939 | 52 | 0.0 | 0.0 | 0.00 | 0.00 | 0.00 | 65 | 920.9 | |
| 20260507003439 | 52 | 0.0 | 0.0 | 0.00 | 0.00 | 0.00 | 65 | 920.9 | |
| 20260507002939 | 53 | 0.0 | 0.0 | 0.00 | 0.00 | 0.00 | 63 | 920.8 | |
| 20260507002439 | 53 | 0.0 | 0.0 | 0.00 | 0.00 | 0.00 | 62 | 920.7 | |
| 20260507001939 | 53 | 0.0 | 0.0 | 0.00 | 0.00 | 0.00 | 63 | 920.7 | |
| 20260507001439 | 53 | 0.0 | 0.0 | 0.00 | 0.00 | 0.00 | 63 | 920.8 | |
| 20260507000939 | 53 | 0.0 | 0.0 | 0.00 | 0.00 | 0.00 | 63 | 920.7 | |
| 20260507000439 | 53 | 0.0 | 0.0 | 0.00 | 0.00 | 0.00 | 62 | 920.7 | |
| 20260506235939 | 54 | 0.0 | 0.0 | 0.00 | 0.00 | 0.00 | 61 | 920.7 | |
| 20260506235439 | 54 | 0.0 | 0.0 | 0.00 | 0.00 | 0.00 | 61 | 920.7 | |
| 20260506234939 | 54 | 0.0 | 0.0 | 0.00 | 0.00 | 0.00 | 61 | 920.7 | |
| 20260506234439 | 54 | 0.0 | 0.0 | 0.00 | 0.00 | 0.00 | 61 | 920.7 | |
| 20260506233939 | 54 | 0.0 | 0.0 | 0.00 | 0.00 | 0.00 | 60 | 920.7 | |
| 20260506233439 | 54 | 0.0 | 0.0 | 0.00 | 0.00 | 0.00 | 61 | 920.7 | |
| 20260506232939 | 55 | 0.0 | 0.0 | 0.00 | 0.00 | 0.00 | 61 | 920.6 | |
| 20260506232439 | 54 | 0.0 | 0.0 | 0.00 | 0.00 | 0.00 | 61 | 920.6 | |
| 20260506231939 | 54 | 0.0 | 0.0 | 0.00 | 0.00 | 0.00 | 61 | 920.6 | |
| 20260506231439 | 55 | 0.0 | 0.0 | 0.00 | 0.00 | 0.00 | 60 | 920.6 | |
| 20260506230939 | 55 | 0.0 | 0.0 | 0.00 | 0.00 | 0.00 | 60 | 920.6 | |
| 20260506230439 | 54 | 0.0 | 0.0 | 0.00 | 0.00 | 0.00 | 60 | 920.6 | |
| 20260506225939 | 55 | 0.0 | 0.0 | 0.00 | 0.00 | 0.00 | 59 | 920.6 | |
| 20260506225439 | 55 | 0.0 | 0.0 | 0.00 | 0.00 | 0.00 | 59 | 920.5 | |
| 20260506224939 | 55 | 0.0 | 0.0 | 0.00 | 0.00 | 0.00 | 60 | 920.4 | |
| 20260506224439 | 55 | 0.0 | 0.0 | 0.00 | 0.00 | 0.00 | 60 | 920.4 | |
| 20260506223939 | 56 | 0.0 | 0.0 | 0.00 | 0.00 | 0.00 | 59 | 920.5 | |
| 20260506223439 | 55 | 0.0 | 0.0 | 0.00 | 0.00 | 0.00 | 59 | 920.5 | |
| 20260506222939 | 56 | 0.0 | 0.0 | 0.00 | 0.00 | 0.00 | 58 | 920.5 | |
| 20260506222439 | 56 | 0.0 | 0.0 | 0.00 | 0.00 | 0.00 | 58 | 920.5 | |
| 20260506221939 | 56 | 0.0 | 0.0 | 0.00 | 0.00 | 0.00 | 58 | 920.5 | |
| 20260506221439 | 56 | 0.0 | 0.0 | 0.00 | 0.00 | 0.00 | 57 | 920.4 | |
| 20260506220939 | 56 | 0.0 | 0.0 | 0.00 | 0.00 | 0.00 | 57 | 920.3 | |
| 20260506220439 | 56 | 0.0 | 0.0 | 0.00 | 0.00 | 0.00 | 57 | 920.4 | |
| 20260506215939 | 56 | 0.0 | 0.0 | 0.00 | 0.00 | 0.00 | 57 | 920.4 | |
| 20260506215439 | 56 | 0.0 | 0.0 | 0.00 | 0.00 | 0.00 | 57 | 920.3 | |
| 20260506214939 | 56 | 0.0 | 0.0 | 0.00 | 0.00 | 0.00 | 56 | 920.2 | |
| 20260506214439 | 57 | 0.0 | 0.0 | 0.00 | 0.00 | 0.00 | 56 | 920.2 | |
| 20260506213939 | 57 | 0.0 | 0.0 | 0.00 | 0.00 | 0.00 | 55 | 920.1 | |
| 20260506213439 | 57 | 0.0 | 0.0 | 0.00 | 0.00 | 0.00 | 54 | 920.0 | |
| 20260506212939 | 58 | 0.0 | 0.0 | 0.00 | 0.00 | 0.00 | 54 | 920.0 | |
| 20260506212439 | 58 | 0.0 | 0.0 | 0.00 | 0.00 | 0.00 | 54 | 920.0 | |
| 20260506211939 | 58 | 0.0 | 0.0 | 0.00 | 0.00 | 0.00 | 54 | 920.1 | |
| 20260506211439 | 58 | 0.0 | 0.0 | 0.00 | 0.00 | 0.00 | 53 | 920.1 | |
| 20260506210939 | 58 | 0.0 | 0.0 | 0.00 | 0.00 | 0.00 | 53 | 920.0 | |
| 20260506210439 | 58 | 0.0 | 0.0 | 0.00 | 0.00 | 0.00 | 53 | 920.1 | |
| 20260506205939 | 58 | 0.0 | 0.0 | 0.00 | 0.00 | 0.00 | 53 | 920.1 | |
| 20260506205439 | 58 | 0.0 | 0.0 | 0.00 | 0.00 | 0.00 | 53 | 920.1 | |
| 20260506204939 | 58 | 0.0 | 0.0 | 0.00 | 0.00 | 0.00 | 54 | 920.1 | |
| 20260506204439 | 58 | 0.0 | 0.0 | 0.00 | 0.00 | 0.00 | 53 | 920.0 | |
| 20260506203939 | 58 | 0.0 | 0.0 | 0.00 | 0.00 | 0.00 | 53 | 920.0 | |
| 20260506203439 | 58 | 0.0 | 0.0 | 0.00 | 0.00 | 0.00 | 53 | 920.0 | |
| 20260506202939 | 58 | 0.0 | 0.0 | 0.00 | 0.00 | 0.00 | 53 | 919.9 | |
| 20260506202439 | 58 | 0.0 | 0.0 | 0.00 | 0.00 | 0.00 | 52 | 919.9 | |
| 20260506201939 | 59 | 0.0 | 0.0 | 0.00 | 0.00 | 0.00 | 51 | 919.7 | |
| 20260506201439 | 59 | 0.0 | 0.0 | 0.00 | 0.00 | 0.00 | 52 | 919.8 | |
| 20260506200939 | 58 | 0.0 | 0.0 | 0.00 | 0.00 | 0.00 | 52 | 919.7 | |
| 20260506200439 | 59 | 0.0 | 0.0 | 0.00 | 0.00 | 0.00 | 52 | 919.7 | |
| 20260506195939 | 59 | 0.0 | 0.0 | 0.00 | 0.00 | 0.00 | 52 | 919.8 | |
| 20260506195439 | 59 | 0.0 | 0.0 | 0.00 | 0.00 | 0.00 | 51 | 919.7 | |
| 20260506194939 | 59 | 0.0 | 0.0 | 0.00 | 0.00 | 0.00 | 51 | 919.6 | |
| 20260506194439 | 59 | 0.0 | 0.0 | 0.00 | 0.00 | 0.00 | 51 | 919.5 | |
| 20260506193939 | 59 | 0.0 | 0.0 | 0.00 | 0.00 | 0.00 | 50 | 919.5 | |
| 20260506193439 | 60 | 0.0 | 0.0 | 0.00 | 0.00 | 0.00 | 49 | 919.5 | |
| 20260506192939 | 60 | 0.0 | 0.0 | 0.00 | 0.00 | 0.00 | 49 | 919.4 | |
| 20260506192439 | 60 | 0.0 | 0.0 | 0.00 | 0.00 | 0.00 | 49 | 919.4 | |
| 20260506191939 | 60 | 0.0 | 0.0 | 0.00 | 0.00 | 0.00 | 50 | 919.4 | |
| 20260506191439 | 60 | 0.0 | 0.0 | 0.00 | 0.00 | 0.00 | 50 | 919.4 | |
| 20260506190939 | 60 | 0.0 | 0.0 | 0.00 | 0.00 | 0.00 | 50 | 919.3 | |
| 20260506190439 | 60 | 0.0 | 0.0 | 0.00 | 0.00 | 0.00 | 51 | 919.3 | |
| 20260506185939 | 60 | 0.0 | 0.0 | 0.00 | 0.00 | 0.00 | 52 | 919.2 | |
| 20260506185439 | 59 | 0.0 | 0.0 | 0.00 | 0.00 | 0.00 | 56 | 919.1 | |
| 20260506184939 | 59 | 0.0 | 0.0 | 0.00 | 0.00 | 0.00 | 55 | 919.0 | |
| 20260506184439 | 59 | 0.0 | 0.0 | 0.00 | 0.00 | 0.00 | 56 | 918.9 | |
| 20260506183939 | 60 | 0.0 | 0.0 | 0.00 | 0.00 | 0.00 | 55 | 918.8 | |
| 20260506183439 | 60 | 0.0 | 0.0 | 0.00 | 0.00 | 0.00 | 56 | 918.7 | |
| 20260506182939 | 60 | 0.0 | 0.0 | 0.00 | 0.00 | 0.00 | 55 | 918.6 | |
| 20260506182439 | 60 | 0.0 | 0.0 | 0.00 | 0.00 | 0.00 | 54 | 918.5 | |
| 20260506181939 | 61 | 0.0 | 0.0 | 0.00 | 0.00 | 0.00 | 53 | 918.5 | |
| 20260506181439 | 61 | 0.0 | 0.0 | 0.00 | 0.00 | 0.00 | 52 | 918.3 | |
| 20260506180939 | 61 | 0.0 | 0.0 | 0.00 | 0.00 | 0.00 | 51 | 918.3 | |
| 20260506180439 | 61 | 0.0 | 0.0 | 0.00 | 0.00 | 0.00 | 51 | 918.2 | |
| 20260506175939 | 61 | 0.0 | 0.0 | 0.00 | 0.00 | 0.00 | 51 | 918.1 | |
| 20260506175439 | 61 | 0.0 | 0.0 | 0.00 | 0.00 | 0.00 | 50 | 918.1 | |
| 20260506174939 | 61 | 0.0 | 0.0 | 0.00 | 0.00 | 0.00 | 49 | 918.1 | |
| 20260506174439 | 62 | 0.0 | 0.0 | 0.00 | 0.00 | 0.00 | 49 | 918.0 | |
| 20260506173939 | 62 | 0.0 | 0.0 | 0.00 | 0.00 | 0.00 | 48 | 918.0 | |
| 20260506173439 | 62 | 0.0 | 0.0 | 0.00 | 0.00 | 0.00 | 48 | 918.1 | |
| 20260506172939 | 62 | 0.0 | 0.0 | 0.00 | 0.00 | 0.00 | 48 | 918.1 | |
| 20260506172439 | 62 | 0.0 | 0.0 | 0.00 | 0.00 | 0.00 | 48 | 918.0 | |
| 20260506171939 | 63 | 0.0 | 0.0 | 0.00 | 0.00 | 0.00 | 47 | 918.2 | |
| 20260506171439 | 63 | 0.0 | 0.0 | 0.00 | 0.00 | 0.00 | 47 | 918.0 | |
| 20260506170939 | 63 | 0.0 | 0.0 | 0.00 | 0.00 | 0.00 | 46 | 918.0 | |
| 20260506170439 | 63 | 0.0 | 0.0 | 0.00 | 0.00 | 0.00 | 46 | 917.9 | |
| 20260506165939 | 63 | 0.0 | 0.0 | 0.00 | 0.00 | 0.00 | 46 | 918.0 | |
| 20260506165439 | 63 | 0.0 | 0.0 | 0.00 | 0.00 | 0.00 | 46 | 918.0 | |
| 20260506164939 | 64 | 0.0 | 0.0 | 0.00 | 0.00 | 0.00 | 45 | 918.0 | |
| 20260506164439 | 64 | 0.0 | 0.0 | 0.00 | 0.00 | 0.00 | 44 | 918.0 | |
| 20260506163939 | 65 | 0.0 | 0.0 | 0.00 | 0.00 | 0.00 | 44 | 918.0 | |
| 20260506163439 | 66 | 0.0 | 0.0 | 0.00 | 0.00 | 0.00 | 44 | 918.0 | |
| 20260506162939 | 66 | 0.0 | 0.0 | 0.00 | 0.00 | 0.00 | 44 | 918.1 | |
| 20260506162439 | 66 | 0.0 | 0.0 | 0.00 | 0.00 | 0.00 | 44 | 918.1 | |
| 20260506161939 | 66 | 0.0 | 0.0 | 0.00 | 0.00 | 0.00 | 43 | 918.1 | |
| 20260506161439 | 66 | 0.0 | 0.0 | 0.00 | 0.00 | 0.00 | 43 | 918.2 | |
| 20260506160939 | 65 | 0.0 | 0.0 | 0.00 | 0.00 | 0.00 | 43 | 918.2 | |
| 20260506160439 | 66 | 0.0 | 0.0 | 0.00 | 0.00 | 0.00 | 43 | 918.3 | |
| 20260506155939 | 66 | 0.0 | 0.0 | 0.00 | 0.00 | 0.00 | 44 | 918.3 | |
| 20260506155439 | 66 | 0.0 | 0.0 | 0.00 | 0.00 | 0.00 | 42 | 918.3 | |
| 20260506154939 | 67 | 0.0 | 0.0 | 0.00 | 0.00 | 0.00 | 41 | 918.4 | |
| 20260506154439 | 68 | 0.0 | 0.0 | 0.00 | 0.00 | 0.00 | 40 | 918.3 | |
| 20260506153939 | 69 | 0.0 | 0.0 | 0.00 | 0.00 | 0.00 | 39 | 918.3 | |
| 20260506153439 | 67 | 0.0 | 0.0 | 0.00 | 0.00 | 0.00 | 41 | 918.3 | |
| 20260506152939 | 67 | 0.0 | 0.0 | 0.00 | 0.00 | 0.00 | 40 | 918.4 | |
| 20260506152439 | 68 | 0.0 | 0.0 | 0.00 | 0.00 | 0.00 | 40 | 918.4 | |
| 20260506151939 | 68 | 0.0 | 0.0 | 0.00 | 0.00 | 0.00 | 39 | 918.4 | |
| 20260506151439 | 69 | 0.0 | 0.0 | 0.00 | 0.00 | 0.00 | 38 | 918.3 | |
| 20260506150939 | 69 | 0.0 | 0.0 | 0.00 | 0.00 | 0.00 | 39 | 918.4 | |
| 20260506150439 | 67 | 0.0 | 0.0 | 0.00 | 0.00 | 0.00 | 39 | 918.4 | |
| 20260506145939 | 69 | 0.0 | 0.0 | 0.00 | 0.00 | 0.00 | 37 | 918.3 | |
| 20260506145439 | 70 | 0.0 | 0.0 | 0.00 | 0.00 | 0.00 | 37 | 918.3 | |
| 20260506144939 | 70 | 0.0 | 0.0 | 0.00 | 0.00 | 0.00 | 37 | 918.3 | |
| 20260506144439 | 68 | 0.0 | 0.0 | 0.00 | 0.00 | 0.00 | 39 | 918.3 | |
| 20260506143939 | 68 | 0.0 | 0.0 | 0.00 | 0.00 | 0.00 | 39 | 918.4 | |
| 20260506143439 | 68 | 0.0 | 0.0 | 0.00 | 0.00 | 0.00 | 38 | 918.5 | |
| 20260506142939 | 68 | 0.0 | 0.0 | 0.00 | 0.00 | 0.00 | 38 | 918.5 | |
| 20260506142439 | 68 | 0.0 | 0.0 | 0.00 | 0.00 | 0.00 | 37 | 918.5 | |
| 20260506141939 | 69 | 0.0 | 0.0 | 0.00 | 0.00 | 0.00 | 38 | 918.5 | |
| 20260506141439 | 71 | 0.0 | 0.0 | 0.00 | 0.00 | 0.00 | 37 | 918.4 | |
| 20260506140939 | 69 | 0.0 | 0.0 | 0.00 | 0.00 | 0.00 | 38 | 918.5 | |
| 20260506140439 | 69 | 0.0 | 0.0 | 0.00 | 0.00 | 0.00 | 36 | 918.5 | |
| 20260506135939 | 70 | 0.0 | 0.0 | 0.00 | 0.00 | 0.00 | 36 | 918.6 | |
| 20260506135439 | 72 | 0.0 | 0.0 | 0.00 | 0.00 | 0.00 | 34 | 918.5 | |
| 20260506134939 | 72 | 0.0 | 0.0 | 0.00 | 0.00 | 0.00 | 34 | 918.5 | |
| 20260506134439 | 73 | 0.0 | 0.0 | 0.00 | 0.00 | 0.00 | 33 | 918.6 | |
| 20260506133939 | 73 | 0.0 | 0.0 | 0.00 | 0.00 | 0.00 | 34 | 918.6 | |
| 20260506133439 | 72 | 0.0 | 0.0 | 0.00 | 0.00 | 0.00 | 34 | 918.7 | |
| 20260506132939 | 73 | 0.0 | 0.0 | 0.00 | 0.00 | 0.00 | 33 | 918.6 | |
| 20260506132439 | 73 | 0.0 | 0.0 | 0.00 | 0.00 | 0.00 | 32 | 918.7 | |
| 20260506131939 | 74 | 0.0 | 0.0 | 0.00 | 0.00 | 0.00 | 33 | 918.7 | |
| 20260506131439 | 71 | 0.0 | 0.0 | 0.00 | 0.00 | 0.00 | 35 | 918.9 | |
| 20260506130939 | 71 | 0.0 | 0.0 | 0.00 | 0.00 | 0.00 | 34 | 919.0 | |
| 20260506130439 | 72 | 0.0 | 0.0 | 0.00 | 0.00 | 0.00 | 34 | 918.9 | |
| 20260506125939 | 73 | 0.0 | 0.0 | 0.00 | 0.00 | 0.00 | 33 | 918.9 | |
| 20260506125439 | 73 | 0.0 | 0.0 | 0.00 | 0.00 | 0.00 | 33 | 919.0 | |
| 20260506124939 | 72 | 0.0 | 0.0 | 0.00 | 0.00 | 0.00 | 33 | 919.1 | |
| 20260506124439 | 72 | 0.0 | 0.0 | 0.00 | 0.00 | 0.00 | 33 | 919.1 | |
| 20260506123939 | 75 | 0.0 | 0.0 | 0.00 | 0.00 | 0.00 | 30 | 918.9 | |
| 20260506123439 | 76 | 0.0 | 0.0 | 0.00 | 0.00 | 0.00 | 30 | 919.0 | |
| 20260506122939 | 79 | 0.0 | 0.0 | 0.00 | 0.00 | 0.00 | 28 | 918.8 | |
| 20260506122439 | 78 | 0.0 | 0.0 | 0.00 | 0.00 | 0.00 | 30 | 918.8 | |
| 20260506121939 | 77 | 0.0 | 0.0 | 0.00 | 0.00 | 0.00 | 30 | 918.8 | |
| 20260506121439 | 78 | 0.0 | 0.0 | 0.00 | 0.00 | 0.00 | 27 | 918.7 | |
| 20260506120939 | 80 | 0.0 | 0.0 | 0.00 | 0.00 | 0.00 | 26 | 918.6 | |
| 20260506120439 | 80 | 0.0 | 0.0 | 0.00 | 0.00 | 0.00 | 28 | 918.8 | |
| 20260506115939 | 78 | 0.0 | 0.0 | 0.00 | 0.00 | 0.00 | 28 | 918.9 | |
| 20260506115439 | 78 | 0.0 | 0.0 | 0.00 | 0.00 | 0.00 | 29 | 918.9 | |
| 20260506114939 | 78 | 0.0 | 0.0 | 0.00 | 0.00 | 0.00 | 28 | 918.8 | |
| 20260506114439 | 76 | 0.0 | 0.0 | 0.00 | 0.00 | 0.00 | 29 | 918.9 | |
| 20260506113939 | 78 | 0.0 | 0.0 | 0.00 | 0.00 | 0.00 | 28 | 918.8 | |
| 20260506113439 | 78 | 0.0 | 0.0 | 0.00 | 0.00 | 0.00 | 28 | 918.9 | |
| 20260506112939 | 77 | 0.0 | 0.0 | 0.00 | 0.00 | 0.00 | 28 | 919.1 | |
| 20260506112001 | 80 | 0.0 | 0.0 | 0.00 | 0.00 | 0.00 | 26 | 919.3 | |
| 20260506111501 | 80 | 0.0 | 0.0 | 0.00 | 0.00 | 0.00 | 26 | 919.3 | |
| 20260506111001 | 79 | 0.0 | 0.0 | 0.00 | 0.00 | 0.00 | 27 | 919.3 | |
| 20260506110501 | 79 | 0.0 | 0.0 | 0.00 | 0.00 | 0.00 | 26 | 919.3 | |
| 20260506110001 | 78 | 0.0 | 0.0 | 0.00 | 0.00 | 0.00 | 26 | 919.4 | |
| 20260506105501 | 77 | 0.0 | 0.0 | 0.00 | 0.00 | 0.00 | 28 | 919.5 | |
| 20260506105001 | 78 | 0.0 | 0.0 | 0.00 | 0.00 | 0.00 | 27 | 919.5 | |
| 20260506104501 | 77 | 0.0 | 0.0 | 0.00 | 0.00 | 0.00 | 28 | 919.4 | |
| 20260506104001 | 73 | 0.0 | 0.0 | 0.00 | 0.00 | 0.00 | 27 | 919.5 | |
| 20260506103501 | 72 | 0.0 | 0.0 | 0.00 | 0.00 | 0.00 | 30 | 919.6 | |
| 20260506103001 | 70 | 0.0 | 0.0 | 0.00 | 0.00 | 0.00 | 29 | 919.7 | |
| 20260506102501 | 70 | 0.0 | 0.0 | 0.00 | 0.00 | 0.00 | 28 | 919.7 | |
| 20260506102001 | 70 | 0.0 | 0.0 | 0.00 | 0.00 | 0.00 | 29 | 919.7 | |
| 20260506101501 | 71 | 0.0 | 0.0 | 0.00 | 0.00 | 0.00 | 29 | 919.8 | |
| 20260506101001 | 72 | 0.0 | 0.0 | 0.00 | 0.00 | 0.00 | 26 | 919.8 | |
| 20260506100501 | 76 | 0.0 | 0.0 | 0.00 | 0.00 | 0.00 | 27 | 919.8 | |
| 20260506100001 | 72 | 0.0 | 0.0 | 0.00 | 0.00 | 0.00 | 28 | 919.8 | |
| 20260506095501 | 70 | 0.0 | 0.0 | 0.00 | 0.00 | 0.00 | 28 | 919.9 | |
| 20260506095001 | 70 | 0.0 | 0.0 | 0.00 | 0.00 | 0.00 | 28 | 919.9 | |
| 20260506094501 | 71 | 0.0 | 0.0 | 0.00 | 0.00 | 0.00 | 26 | 920.0 | |
| 20260506094001 | 73 | 0.0 | 0.0 | 0.00 | 0.00 | 0.00 | 26 | 919.8 | |
| 20260506093501 | 77 | 0.0 | 0.0 | 0.00 | 0.00 | 0.00 | 24 | 919.7 | |
| 20260506093001 | 80 | 0.0 | 0.0 | 0.00 | 0.00 | 0.00 | 22 | 919.7 | |
| 20260506092501 | 83 | 0.0 | 0.0 | 0.00 | 0.00 | 0.00 | 21 | 919.7 | |
| 20260506092001 | 80 | 0.0 | 0.0 | 0.00 | 0.00 | 0.00 | 25 | 919.7 | |
| 20260506091501 | 81 | 0.0 | 0.0 | 0.00 | 0.00 | 0.00 | 23 | 919.8 | |
| 20260506091001 | 85 | 0.0 | 0.0 | 0.00 | 0.00 | 0.00 | 23 | 919.7 | |
| 20260506090501 | 85 | 0.0 | 0.0 | 0.00 | 0.00 | 0.00 | 24 | 919.7 | |
| 20260506090001 | 79 | 0.0 | 0.0 | 0.00 | 0.00 | 0.00 | 28 | 920.0 | |
| 20260506085501 | 75 | 0.0 | 0.0 | 0.00 | 0.00 | 0.00 | 30 | 919.9 | |
| 20260506085001 | 73 | 0.0 | 0.0 | 0.00 | 0.00 | 0.00 | 32 | 920.1 | |
| 20260506084501 | 76 | 0.0 | 0.0 | 0.00 | 0.00 | 0.00 | 28 | 920.0 | |
| 20260506084001 | 81 | 0.0 | 0.0 | 0.00 | 0.00 | 0.00 | 26 | 919.9 | |
| 20260506083501 | 84 | 0.0 | 0.0 | 0.00 | 0.00 | 0.00 | 24 | 919.9 | |
| 20260506083001 | 83 | 0.0 | 0.0 | 0.00 | 0.00 | 0.00 | 24 | 920.0 | |
| 20260506082501 | 88 | 0.0 | 0.0 | 0.00 | 0.00 | 0.00 | 21 | 919.9 | |
| 20260506082001 | 88 | 0.0 | 0.0 | 0.00 | 0.00 | 0.00 | 21 | 919.9 | |
| 20260506081501 | 87 | 0.0 | 0.0 | 0.00 | 0.00 | 0.00 | 22 | 919.9 | |
| 20260506081001 | 85 | 0.0 | 0.0 | 0.00 | 0.00 | 0.00 | 21 | 919.9 | |
| 20260506080501 | 87 | 0.0 | 0.0 | 0.00 | 0.00 | 0.00 | 21 | 920.0 | |
| 20260506073501 | 86 | 0.0 | 0.0 | 0.00 | 0.00 | 0.00 | 23 | 920.1 | |
| 20260506073001 | 87 | 0.0 | 0.0 | 0.00 | 0.00 | 0.00 | 23 | 920.2 | |
| 20260506072501 | 82 | 0.0 | 0.0 | 0.00 | 0.00 | 0.00 | 23 | 920.3 | |
| 20260506072001 | 84 | 0.0 | 0.0 | 0.00 | 0.00 | 0.00 | 24 | 920.2 | |
| 20260506071501 | 82 | 0.0 | 0.0 | 0.00 | 0.00 | 0.00 | 26 | 920.4 | |
| 20260506071001 | 79 | 0.0 | 0.0 | 0.00 | 0.00 | 0.00 | 28 | 920.4 | |
| 20260506070501 | 83 | 0.0 | 0.0 | 0.00 | 0.00 | 0.00 | 28 | 920.4 |